Time;durP1;ratioP1;P1;durP2;ratioP2;P2;SDS_P1;SDS_P2;PMS_P1;PMS_P2;Temp;Humidity;BMP_temperature;BMP_pressure;BME280_temperature;BME280_humidity;BME280_pressure;Samples;Min_cycle;Max_cycle;Signal;HPM_P1;HPM_P2
2023/09/30 00:00:47;;;;;;;18.38;4.40;;;;;;;12.02;100.00;101870.78;4962926;28;20672;-45
2023/09/30 00:03:12;;;;;;;14.82;4.22;;;;;;;12.01;100.00;101869.91;4961638;28;20225;-46
2023/09/30 00:05:38;;;;;;;16.80;4.15;;;;;;;12.02;100.00;101868.09;4971001;28;20664;-46
2023/09/30 00:08:06;;;;;;;15.77;3.55;;;;;;;11.96;100.00;101871.84;4963411;28;20281;-45
2023/09/30 00:10:32;;;;;;;21.90;4.18;;;;;;;11.94;100.00;101884.44;4964450;28;20205;-46
2023/09/30 00:12:58;;;;;;;21.83;4.00;;;;;;;11.92;100.00;101880.91;4965597;28;20244;-45
2023/09/30 00:15:24;;;;;;;20.45;3.83;;;;;;;11.89;100.00;101876.47;4966845;28;20264;-46
2023/09/30 00:17:50;;;;;;;19.98;4.15;;;;;;;11.92;100.00;101876.41;4962464;28;20186;-45
2023/09/30 00:20:15;;;;;;;16.73;4.13;;;;;;;11.94;100.00;101885.31;4970917;28;20683;-46
2023/09/30 00:22:42;;;;;;;17.73;3.70;;;;;;;11.94;100.00;101885.31;4962984;28;20222;-45
2023/09/30 00:25:08;;;;;;;16.20;3.65;;;;;;;11.89;100.00;101887.22;4966234;28;20212;-46
2023/09/30 00:27:33;;;;;;;18.52;3.80;;;;;;;11.99;100.00;101892.38;4963724;28;20264;-45
2023/09/30 00:29:59;;;;;;;16.50;3.95;;;;;;;11.95;100.00;101889.75;4966578;28;20182;-45
2023/09/30 00:32:24;;;;;;;22.15;4.57;;;;;;;11.90;100.00;101893.50;4963876;28;20206;-45
2023/09/30 00:34:52;;;;;;;21.70;3.80;;;;;;;11.83;100.00;101892.75;4962848;28;20189;-46
2023/09/30 00:37:17;;;;;;;16.77;3.80;;;;;;;11.85;100.00;101893.59;4983152;28;20270;-44
2023/09/30 00:39:44;;;;;;;18.70;3.67;;;;;;;11.87;100.00;101901.56;4966462;28;20712;-44
2023/09/30 00:42:10;;;;;;;16.10;4.35;;;;;;;11.80;100.00;101900.00;4969805;28;20293;-46
2023/09/30 00:44:35;;;;;;;14.52;3.15;;;;;;;11.83;100.00;101899.88;4960847;28;20257;-46
2023/09/30 00:47:01;;;;;;;16.27;4.18;;;;;;;11.79;100.00;101896.44;4966750;28;20171;-45
2023/09/30 00:49:28;;;;;;;19.83;4.60;;;;;;;11.77;100.00;101898.28;4967789;28;20727;-46
2023/09/30 00:51:55;;;;;;;20.50;3.83;;;;;;;11.86;100.00;101895.34;4964810;28;20200;-46
2023/09/30 00:54:24;;;;;;;18.05;4.28;;;;;;;11.84;100.00;101901.66;4962863;28;20189;-46
2023/09/30 00:56:52;;;;;;;19.30;3.92;;;;;;;11.81;100.00;101891.91;4959552;28;20263;-45
2023/09/30 00:59:18;;;;;;;15.77;3.70;;;;;;;11.84;100.00;101901.66;4971302;28;20178;-46
2023/09/30 01:01:45;;;;;;;11.05;3.58;;;;;;;11.79;100.00;101899.13;4962737;28;20198;-45
2023/09/30 01:04:14;;;;;;;19.58;3.70;;;;;;;11.70;100.00;101894.00;4969399;28;20599;-47
2023/09/30 01:06:40;;;;;;;20.92;3.67;;;;;;;11.75;100.00;101903.66;4964744;28;20221;-45
2023/09/30 01:09:07;;;;;;;21.00;4.35;;;;;;;11.77;100.00;101902.75;4966513;28;20642;-45
2023/09/30 01:11:33;;;;;;;20.05;4.13;;;;;;;11.59;100.00;101904.09;4959683;28;20200;-45
2023/09/30 01:13:58;;;;;;;21.83;4.07;;;;;;;11.54;100.00;101910.47;4965964;28;20186;-44
2023/09/30 01:16:24;;;;;;;14.27;3.40;;;;;;;11.60;100.00;101905.88;4960170;28;20241;-45
2023/09/30 01:18:50;;;;;;;23.20;4.15;;;;;;;11.63;100.00;101913.84;4949397;28;20201;-44
2023/09/30 01:21:16;;;;;;;16.17;3.38;;;;;;;11.61;100.00;101910.31;4969987;28;20187;-46
2023/09/30 01:23:43;;;;;;;19.77;3.95;;;;;;;11.59;100.00;101907.69;4964458;28;20634;-45
2023/09/30 01:26:12;;;;;;;13.45;3.60;;;;;;;11.61;100.00;101913.00;4967843;28;20178;-47
2023/09/30 01:28:38;;;;;;;12.23;3.75;;;;;;;11.69;100.00;101921.75;4962625;28;20214;-46
2023/09/30 01:31:05;;;;;;;18.05;3.80;;;;;;;11.64;100.00;101912.94;4961784;28;20276;-44
2023/09/30 01:33:31;;;;;;;18.17;3.78;;;;;;;11.64;100.00;101896.81;4963654;28;20209;-45
2023/09/30 01:35:57;;;;;;;17.95;4.13;;;;;;;11.64;100.00;101912.94;4967545;28;20232;-45
2023/09/30 01:39:16;;;;;;;18.38;3.50;;;;;;;11.62;100.00;101910.28;4969401;28;20186;-46
2023/09/30 01:41:41;;;;;;;24.20;3.88;;;;;;;11.64;100.00;101907.56;4961563;28;20593;-46
2023/09/30 01:44:07;;;;;;;19.05;3.72;;;;;;;11.62;100.00;101910.28;4963353;28;20674;-45
2023/09/30 01:46:33;;;;;;;16.67;4.32;;;;;;;11.66;100.00;101911.09;4966216;28;20189;-46
2023/09/30 01:48:59;;;;;;;15.20;3.97;;;;;;;11.63;100.00;101911.16;4961265;28;20320;-46
2023/09/30 01:51:24;;;;;;;15.23;3.28;;;;;;;11.55;100.00;101922.97;4960268;28;20490;-44
2023/09/30 01:53:50;;;;;;;13.80;3.53;;;;;;;11.62;100.00;101914.78;4963209;28;20206;-45
2023/09/30 01:56:16;;;;;;;14.40;3.58;;;;;;;11.61;100.00;101918.34;4963322;28;20186;-45
2023/09/30 01:58:42;;;;;;;12.48;3.08;;;;;;;11.61;100.00;101908.53;4980829;28;20660;-44
2023/09/30 02:01:08;;;;;;;17.45;3.50;;;;;;;11.56;100.00;101918.47;4960464;28;20182;-46
2023/09/30 02:03:34;;;;;;;14.57;4.07;;;;;;;11.58;100.00;101918.44;4947707;28;20194;-46
2023/09/30 02:05:59;;;;;;;22.20;3.97;;;;;;;11.50;100.00;101922.22;4963184;28;20174;-46
2023/09/30 02:08:25;;;;;;;18.55;4.32;;;;;;;11.54;100.00;101933.72;4964636;28;20256;-46
2023/09/30 02:10:53;;;;;;;12.63;3.28;;;;;;;11.60;100.00;101933.59;4961451;28;20596;-45
2023/09/30 02:13:19;;;;;;;13.43;3.78;;;;;;;11.61;100.00;101915.69;4962791;28;20209;-46
2023/09/30 02:15:46;;;;;;;16.63;3.83;;;;;;;11.58;100.00;101926.50;4965098;28;20274;-45
2023/09/30 02:18:12;;;;;;;18.88;4.10;;;;;;;11.46;100.00;101925.88;4963098;28;20182;-46
2023/09/30 02:20:40;;;;;;;19.55;3.97;;;;;;;11.44;100.00;101925.03;4965502;28;20530;-46
2023/09/30 02:23:07;;;;;;;15.98;3.40;;;;;;;11.46;100.00;101923.19;4961641;28;20535;-46
2023/09/30 02:25:33;;;;;;;15.02;3.08;;;;;;;11.42;100.00;101924.19;4962755;28;20194;-45
2023/09/30 02:27:59;;;;;;;15.88;3.22;;;;;;;11.39;100.00;101926.97;4968957;28;20229;-45
2023/09/30 02:30:24;;;;;;;13.02;2.95;;;;;;;11.44;100.00;101922.34;4962586;28;20193;-45
2023/09/30 02:32:50;;;;;;;14.25;2.97;;;;;;;11.43;100.00;101922.38;4965802;28;20233;-45
2023/09/30 02:35:15;;;;;;;13.95;3.35;;;;;;;11.47;100.00;101930.31;4964414;28;20194;-46
2023/09/30 02:37:41;;;;;;;14.27;3.15;;;;;;;11.48;100.00;101932.09;4963268;28;20606;-45
2023/09/30 02:40:10;;;;;;;18.25;3.47;;;;;;;11.45;100.00;101932.16;4946847;28;20186;-45
2023/09/30 02:42:40;;;;;;;11.52;3.00;;;;;;;11.51;100.00;101928.44;4960182;28;20209;-44
2023/09/30 02:45:07;;;;;;;17.85;4.03;;;;;;;11.53;100.00;101935.53;4980944;28;20188;-44
2023/09/30 02:47:34;;;;;;;13.35;3.33;;;;;;;11.55;100.00;101932.84;4959445;28;20800;-46
2023/09/30 02:50:00;;;;;;;13.68;3.63;;;;;;;11.51;100.00;101931.13;4958848;28;20241;-44
2023/09/30 02:52:25;;;;;;;11.73;3.22;;;;;;;11.57;100.00;101938.13;4965419;28;20194;-45
2023/09/30 02:54:51;;;;;;;17.73;4.00;;;;;;;11.50;100.00;101927.56;4969092;28;20187;-45
2023/09/30 02:57:17;;;;;;;15.02;3.33;;;;;;;11.51;100.00;101936.50;4964299;28;20612;-46
2023/09/30 02:59:44;;;;;;;19.88;3.63;;;;;;;11.51;100.00;101929.31;4968368;28;20527;-46
2023/09/30 03:02:11;;;;;;;13.73;3.33;;;;;;;11.54;100.00;101931.06;4974069;28;20208;-46
2023/09/30 03:04:37;;;;;;;13.10;3.33;;;;;;;11.51;100.00;101926.66;4983871;28;20189;-46
2023/09/30 03:07:02;;;;;;;18.42;3.35;;;;;;;11.59;100.00;101944.34;4967364;28;20563;-45
2023/09/30 03:09:28;;;;;;;13.07;2.85;;;;;;;11.61;100.00;101939.84;4968341;28;20201;-45
2023/09/30 03:11:56;;;;;;;18.05;3.30;;;;;;;11.63;100.00;101941.59;4966369;28;20525;-44
2023/09/30 03:14:22;;;;;;;14.77;3.10;;;;;;;11.64;100.00;101940.66;4968133;28;20715;-46
2023/09/30 03:16:48;;;;;;;13.52;3.28;;;;;;;11.59;100.00;101941.66;4963892;28;20580;-44
2023/09/30 03:19:16;;;;;;;16.45;3.30;;;;;;;11.62;100.00;101941.63;4964142;28;20276;-45
2023/09/30 03:21:42;;;;;;;14.32;3.45;;;;;;;11.59;100.00;101944.34;4966517;28;20185;-45
2023/09/30 03:24:08;;;;;;;18.70;3.50;;;;;;;11.64;100.00;101947.81;4972220;28;20193;-46
2023/09/30 03:26:35;;;;;;;14.25;3.13;;;;;;;11.61;100.00;101947.88;4961946;28;20238;-46
2023/09/30 03:29:01;;;;;;;13.77;3.05;;;;;;;11.60;100.00;101938.09;4964430;28;20207;-44
2023/09/30 03:31:26;;;;;;;17.02;3.15;;;;;;;11.60;100.00;101940.75;4962839;28;20651;-46
2023/09/30 03:33:55;;;;;;;17.65;3.10;;;;;;;11.61;100.00;101939.84;4969854;28;20353;-44
2023/09/30 03:36:26;;;;;;;19.92;3.25;;;;;;;11.60;100.00;101944.31;4980428;28;20734;-47
2023/09/30 03:38:58;;;;;;;12.85;2.75;;;;;;;11.64;100.00;101937.97;4965511;28;20182;-44
2023/09/30 03:41:24;;;;;;;14.55;3.03;;;;;;;11.62;100.00;101946.97;4967736;28;20580;-45
2023/09/30 03:43:50;;;;;;;17.88;3.15;;;;;;;11.55;100.00;101949.81;4967170;28;20206;-46
2023/09/30 03:46:15;;;;;;;13.25;3.22;;;;;;;11.52;100.00;101946.31;4969007;28;20197;-45
2023/09/30 03:48:42;;;;;;;10.98;2.67;;;;;;;11.54;100.00;101950.75;4968609;28;20699;-44
2023/09/30 03:51:14;;;;;;;17.92;2.90;;;;;;;11.61;100.00;101940.75;4967620;28;20186;-44
2023/09/30 03:53:44;;;;;;;15.70;3.03;;;;;;;11.57;100.00;101952.47;4963659;28;20198;-45
2023/09/30 03:56:14;;;;;;;13.15;2.88;;;;;;;11.55;100.00;101952.50;4968030;28;20182;-46
2023/09/30 03:58:41;;;;;;;13.07;3.10;;;;;;;11.55;100.00;101948.94;4965562;28;20175;-45
2023/09/30 04:01:11;;;;;;;15.77;3.30;;;;;;;11.57;100.00;101956.94;4961615;28;20200;-46
2023/09/30 04:03:39;;;;;;;16.83;3.20;;;;;;;11.47;100.00;101965.22;4959635;28;20191;-46
2023/09/30 04:06:06;;;;;;;21.02;3.92;;;;;;;11.33;100.00;101965.53;4968113;28;20179;-46
2023/09/30 04:08:33;;;;;;;16.65;3.38;;;;;;;11.28;100.00;101966.56;4970000;28;20310;-46
2023/09/30 04:11:04;;;;;;;18.50;3.15;;;;;;;11.23;100.00;101971.16;4963518;28;20181;-45
2023/09/30 04:13:30;;;;;;;19.05;3.58;;;;;;;11.17;100.00;101963.22;4962731;28;20186;-45
2023/09/30 04:15:58;;;;;;;14.60;3.30;;;;;;;11.11;100.00;101977.69;4960330;28;20225;-46
2023/09/30 04:18:25;;;;;;;18.10;3.22;;;;;;;11.10;100.00;101975.91;4968150;28;20190;-45
2023/09/30 04:20:52;;;;;;;11.27;2.92;;;;;;;11.23;100.00;101963.09;4964838;28;20233;-45
2023/09/30 04:23:20;;;;;;;12.32;3.13;;;;;;;11.19;100.00;101958.72;4964302;28;20741;-46
2023/09/30 04:25:46;;;;;;;15.68;3.20;;;;;;;11.14;100.00;101973.13;4960416;28;20269;-44
2023/09/30 04:28:13;;;;;;;18.10;3.45;;;;;;;11.17;100.00;101974.84;4970271;28;20202;-45
2023/09/30 04:30:39;;;;;;;16.58;3.08;;;;;;;11.17;100.00;101979.31;4968598;28;20178;-46
2023/09/30 04:33:04;;;;;;;23.95;3.78;;;;;;;11.16;100.00;101978.44;4965083;28;20214;-46
2023/09/30 04:35:30;;;;;;;17.38;3.10;;;;;;;11.11;100.00;101983.03;4963471;28;20211;-45
2023/09/30 04:38:00;;;;;;;14.43;3.22;;;;;;;11.11;100.00;101986.59;4968941;28;20559;-46
2023/09/30 04:40:26;;;;;;;16.90;3.75;;;;;;;11.06;100.00;101991.19;4965414;28;20169;-45
2023/09/30 04:42:54;;;;;;;16.48;3.10;;;;;;;11.08;100.00;101988.47;4969729;28;20186;-45
2023/09/30 04:45:19;;;;;;;15.07;3.85;;;;;;;11.03;100.00;101991.25;4966117;28;20197;-45
2023/09/30 04:47:45;;;;;;;21.48;3.60;;;;;;;11.05;100.00;101994.78;4962807;28;20702;-44
2023/09/30 04:50:13;;;;;;;13.98;3.88;;;;;;;10.98;100.00;102003.00;4968084;28;20183;-45
2023/09/30 04:52:40;;;;;;;14.10;2.90;;;;;;;10.93;100.00;102003.06;4964360;28;20298;-44
2023/09/30 04:55:06;;;;;;;13.35;3.25;;;;;;;10.95;100.00;102005.72;4968910;28;20653;-44
2023/09/30 04:57:32;;;;;;;16.17;2.75;;;;;;;10.89;100.00;101998.72;4961003;28;20178;-46
2023/09/30 04:59:58;;;;;;;17.17;3.45;;;;;;;10.83;100.00;102005.06;4965747;28;20198;-46
2023/09/30 05:02:24;;;;;;;11.27;2.53;;;;;;;10.87;100.00;102014.81;4965448;28;20297;-46
2023/09/30 05:04:50;;;;;;;16.02;3.08;;;;;;;10.85;100.00;102013.09;4963618;28;20190;-46
2023/09/30 05:07:16;;;;;;;13.02;2.95;;;;;;;10.90;100.00;102003.16;4964720;28;20193;-45
2023/09/30 05:09:42;;;;;;;17.95;3.85;;;;;;;10.95;100.00;102000.38;4961555;28;20178;-44
2023/09/30 05:12:09;;;;;;;15.55;3.05;;;;;;;10.93;100.00;102005.75;4966975;28;20297;-46
2023/09/30 05:14:36;;;;;;;16.83;3.38;;;;;;;10.90;100.00;102016.56;4963964;28;20662;-45
2023/09/30 05:17:04;;;;;;;17.05;3.38;;;;;;;10.93;100.00;102008.44;4961298;28;20685;-47
2023/09/30 05:19:31;;;;;;;14.57;3.05;;;;;;;10.97;100.00;102010.13;4962434;28;21043;-44
2023/09/30 05:21:57;;;;;;;18.67;3.53;;;;;;;10.98;100.00;102005.69;4963599;28;20437;-46
2023/09/30 05:24:23;;;;;;;15.75;3.50;;;;;;;10.98;100.00;102006.56;4967626;28;20287;-45
2023/09/30 05:26:48;;;;;;;16.35;3.33;;;;;;;11.00;100.00;102015.47;4975294;28;20560;-46
2023/09/30 05:29:13;;;;;;;8.95;2.85;;;;;;;11.03;100.00;102018.06;4960944;28;20211;-44
2023/09/30 05:31:39;;;;;;;9.25;2.60;;;;;;;11.04;100.00;102018.94;4962091;28;20658;-46
2023/09/30 05:34:04;;;;;;;15.68;3.58;;;;;;;10.95;100.00;102005.72;4969578;28;20570;-45
2023/09/30 05:36:30;;;;;;;13.45;3.00;;;;;;;11.03;100.00;102023.44;4964270;28;20611;-45
2023/09/30 05:38:57;;;;;;;13.13;3.25;;;;;;;11.09;100.00;102028.66;4961011;28;20196;-44
2023/09/30 05:41:23;;;;;;;14.43;3.15;;;;;;;11.08;100.00;102028.69;4960752;28;20190;-45
2023/09/30 05:43:49;;;;;;;17.08;3.13;;;;;;;11.08;100.00;102031.38;4963001;28;20704;-45
2023/09/30 05:46:15;;;;;;;13.60;3.28;;;;;;;11.13;100.00;102022.31;4970431;28;20194;-46
2023/09/30 05:48:41;;;;;;;12.57;3.03;;;;;;;11.13;100.00;102019.66;4960669;28;20214;-45
2023/09/30 05:51:07;;;;;;;16.08;3.28;;;;;;;11.20;100.00;102033.81;4960756;28;20230;-45
2023/09/30 05:53:32;;;;;;;10.80;2.97;;;;;;;11.24;100.00;102040.88;4964324;28;20210;-45
2023/09/30 05:55:59;;;;;;;13.93;2.83;;;;;;;11.32;100.00;102041.56;4962304;28;20178;-45
2023/09/30 05:58:26;;;;;;;19.83;4.07;;;;;;;11.27;100.00;102048.84;4964524;28;20261;-45
2023/09/30 06:00:54;;;;;;;15.05;3.28;;;;;;;11.27;100.00;102039.91;4957742;28;20190;-44
2023/09/30 06:03:23;;;;;;;16.90;3.25;;;;;;;11.34;100.00;102047.78;4955820;28;20193;-44
2023/09/30 06:05:48;;;;;;;15.68;3.20;;;;;;;11.33;100.00;102055.91;4966174;28;20237;-45
2023/09/30 06:08:14;;;;;;;15.20;3.55;;;;;;;11.41;100.00;102055.72;4965271;28;20217;-45
2023/09/30 06:10:43;;;;;;;17.77;3.80;;;;;;;11.41;100.00;102056.59;4961525;28;20257;-46
2023/09/30 06:13:10;;;;;;;10.73;3.35;;;;;;;11.43;100.00;102065.47;4959285;28;20218;-46
2023/09/30 06:15:43;;;;;;;18.98;3.78;;;;;;;11.49;100.00;102078.78;4966614;28;20265;-45
2023/09/30 06:18:12;;;;;;;16.40;3.47;;;;;;;11.48;100.00;102073.47;4962276;28;20186;-44
2023/09/30 06:20:38;;;;;;;12.95;3.17;;;;;;;11.50;100.00;102066.22;4960733;28;20179;-46
2023/09/30 06:23:03;;;;;;;11.50;2.78;;;;;;;11.58;100.00;102066.06;4957915;28;20633;-46
2023/09/30 06:25:30;;;;;;;13.77;3.30;;;;;;;11.64;100.00;102072.19;4964651;28;20269;-47
2023/09/30 06:27:55;;;;;;;16.27;3.70;;;;;;;11.82;100.00;102078.06;4967440;28;20198;-46
2023/09/30 06:30:21;;;;;;;15.77;4.03;;;;;;;11.86;100.00;102072.56;4977041;28;20595;-44
2023/09/30 06:32:47;;;;;;;18.48;3.53;;;;;;;11.97;100.00;102074.16;4963850;28;20583;-46
2023/09/30 06:35:13;;;;;;;17.17;3.92;;;;;;;12.15;100.00;102079.94;4964568;28;20220;-44
2023/09/30 06:37:40;;;;;;;13.80;3.40;;;;;;;12.17;100.00;102077.22;4962806;28;20178;-45
2023/09/30 06:40:13;;;;;;;14.07;3.70;;;;;;;12.29;100.00;102073.38;4967586;28;20710;-45
2023/09/30 06:42:39;;;;;;;10.43;3.30;;;;;;;12.36;100.00;102086.59;4960353;28;20201;-45
2023/09/30 06:45:06;;;;;;;15.65;3.15;;;;;;;12.26;100.00;102078.81;4964139;28;20190;-47
2023/09/30 06:47:36;;;;;;;16.35;3.53;;;;;;;12.44;100.00;102077.44;4958093;28;20197;-45
2023/09/30 06:50:10;;;;;;;14.07;3.22;;;;;;;12.50;100.00;102083.53;4966561;28;20217;-45
2023/09/30 06:52:41;;;;;;;14.52;3.75;;;;;;;12.61;100.00;102085.94;4965260;28;20397;-44
2023/09/30 06:55:08;;;;;;;15.80;3.75;;;;;;;12.65;100.00;102079.56;4962525;28;20187;-44
2023/09/30 06:57:37;;;;;;;22.40;5.95;;;;;;;12.64;100.00;102091.25;4963609;28;20269;-46
2023/09/30 07:00:11;;;;;;;12.30;5.30;;;;;;;12.84;100.00;102087.16;4965184;28;20257;-45
2023/09/30 07:02:37;;;;;;;18.13;5.57;;;;;;;12.62;100.00;102085.03;4963390;28;20763;-45
2023/09/30 07:05:10;;;;;;;19.42;5.03;;;;;;;12.70;100.00;102085.72;4965709;28;20306;-45
2023/09/30 07:07:37;;;;;;;12.25;4.53;;;;;;;12.85;100.00;102078.16;4964171;28;20190;-46
2023/09/30 07:10:04;;;;;;;17.08;4.22;;;;;;;12.93;100.00;102092.28;4965915;28;20181;-46
2023/09/30 07:12:31;;;;;;;13.70;4.32;;;;;;;13.06;100.00;102101.75;4960859;28;20269;-44
2023/09/30 07:14:57;;;;;;;19.33;4.53;;;;;;;13.03;100.00;102104.56;4963967;28;20162;-46
2023/09/30 07:20:32;;;;;;;17.55;4.18;;;;;;;13.44;100.00;102104.31;5429446;23;20226;-46
2023/09/30 07:22:59;;;;;;;14.57;3.33;;;;;;;13.73;100.00;102106.09;4981593;28;20388;-45
2023/09/30 07:25:25;;;;;;;14.07;3.33;;;;;;;13.82;100.00;102108.53;4993215;28;20618;-47
2023/09/30 07:27:50;;;;;;;14.30;3.20;;;;;;;14.06;100.00;102105.97;4992937;28;20295;-45
2023/09/30 07:30:16;;;;;;;18.10;3.60;;;;;;;14.19;100.00;102099.22;4997067;28;20320;-47
2023/09/30 07:32:42;;;;;;;12.82;3.00;;;;;;;14.22;100.00;102108.13;5005550;28;20205;-46
2023/09/30 07:35:09;;;;;;;17.33;3.25;;;;;;;14.24;100.00;102107.19;4946519;28;20628;-46
2023/09/30 07:37:34;;;;;;;14.63;3.40;;;;;;;14.78;100.00;102098.16;4929671;29;20223;-47
2023/09/30 07:40:00;;;;;;;14.02;3.20;;;;;;;15.16;100.00;102110.28;4776565;24;20825;-41
2023/09/30 07:42:26;;;;;;;13.32;3.38;;;;;;;15.16;100.00;102104.88;4726287;30;20215;-43
2023/09/30 07:44:51;;;;;;;10.02;3.40;;;;;;;15.20;100.00;102111.06;4731508;30;20326;-42
2023/09/30 07:47:17;;;;;;;11.52;3.40;;;;;;;15.31;100.00;102105.25;4716865;30;20188;-40
2023/09/30 07:49:42;;;;;;;10.77;3.25;;;;;;;14.81;100.00;102108.84;4709881;30;20692;-43
2023/09/30 07:52:08;;;;;;;12.23;3.42;;;;;;;15.11;100.00;102106.88;4715857;30;20215;-42
2023/09/30 07:54:34;;;;;;;13.73;3.78;;;;;;;15.13;100.00;102109.50;4716911;30;20179;-41
2023/09/30 07:56:59;;;;;;;18.45;3.20;;;;;;;15.12;100.00;102110.44;4715718;30;20542;-40
2023/09/30 07:59:26;;;;;;;16.35;3.72;;;;;;;15.18;100.00;102110.22;4715482;30;20199;-41
2023/09/30 08:01:55;;;;;;;24.35;3.78;;;;;;;15.02;100.00;102113.50;4715190;30;20273;-42
2023/09/30 08:04:21;;;;;;;16.58;3.00;;;;;;;15.20;100.00;102114.63;4717004;30;20191;-41
2023/09/30 08:06:46;;;;;;;7.38;2.65;;;;;;;15.53;100.00;102117.00;4716336;30;20714;-41
2023/09/30 08:09:13;;;;;;;13.55;3.45;;;;;;;15.49;100.00;102112.66;4714688;30;20301;-41
2023/09/30 08:11:39;;;;;;;18.08;3.80;;;;;;;15.58;100.00;102108.72;4716785;30;20183;-42
2023/09/30 08:14:06;;;;;;;13.32;3.15;;;;;;;15.49;100.00;102112.66;4715512;30;20208;-41
2023/09/30 08:16:37;;;;;;;15.68;3.05;;;;;;;15.42;100.00;102117.41;4714738;30;20577;-43
2023/09/30 08:19:03;;;;;;;13.02;2.80;;;;;;;15.54;100.00;102115.16;4713723;30;20184;-41
2023/09/30 08:21:30;;;;;;;12.90;3.15;;;;;;;15.81;100.00;102113.25;4715457;30;20195;-40
2023/09/30 08:23:56;;;;;;;17.77;3.28;;;;;;;15.71;100.00;102111.81;4714946;30;20257;-41
2023/09/30 08:26:22;;;;;;;34.33;5.07;;;;;;;15.95;100.00;102112.69;4714696;30;20186;-41
2023/09/30 08:28:47;;;;;;;19.30;4.15;;;;;;;16.07;100.00;102120.31;4716004;30;20216;-40
2023/09/30 08:31:13;;;;;;;15.90;3.25;;;;;;;16.20;100.00;102118.88;4715121;30;20186;-43
2023/09/30 08:33:43;;;;;;;16.90;3.38;;;;;;;16.22;100.00;102129.59;4715078;30;20292;-41
2023/09/30 08:36:10;;;;;;;10.98;3.08;;;;;;;16.44;100.00;102116.97;4715118;30;20203;-40
2023/09/30 08:38:40;;;;;;;15.00;3.50;;;;;;;16.56;100.00;102112.84;4723166;30;20285;-41
2023/09/30 08:41:07;;;;;;;11.68;2.63;;;;;;;16.47;100.00;102129.47;4798515;29;20682;-40
2023/09/30 08:43:39;;;;;;;12.05;2.88;;;;;;;16.75;100.00;102129.19;4802943;29;20211;-39
2023/09/30 08:46:05;;;;;;;14.88;3.10;;;;;;;16.80;99.91;102113.66;4802305;29;20196;-41
2023/09/30 08:48:32;;;;;;;12.40;2.65;;;;;;;16.79;98.79;102119.09;4802553;29;20663;-42
2023/09/30 08:50:59;;;;;;;14.20;2.78;;;;;;;16.87;97.29;102107.00;4802772;29;20192;-41
2023/09/30 08:53:25;;;;;;;12.48;2.60;;;;;;;17.04;95.95;102105.38;4802239;29;20339;-41
2023/09/30 08:55:55;;;;;;;20.02;3.50;;;;;;;16.96;95.33;102097.59;4802908;29;20180;-41
2023/09/30 08:58:24;;;;;;;13.75;2.80;;;;;;;16.65;94.72;102101.63;4801027;29;20632;-42
2023/09/30 09:00:50;;;;;;;24.95;3.75;;;;;;;16.76;94.29;102094.88;4802013;29;20713;-41
2023/09/30 09:03:18;;;;;;;17.25;4.18;;;;;;;16.85;94.25;102099.91;4802367;29;20295;-42
2023/09/30 09:05:43;;;;;;;11.55;2.67;;;;;;;16.98;93.53;102105.66;4801568;29;20183;-42
2023/09/30 09:08:09;;;;;;;13.00;3.00;;;;;;;17.21;93.18;102100.09;4802190;29;20224;-40
2023/09/30 09:10:35;;;;;;;14.95;3.10;;;;;;;17.33;93.11;102095.91;4802152;29;20204;-42
2023/09/30 09:13:00;;;;;;;15.23;3.72;;;;;;;17.71;92.04;102101.38;4801951;29;20259;-41
2023/09/30 09:15:31;;;;;;;13.57;2.60;;;;;;;17.60;91.23;102098.28;4802457;29;20180;-41
2023/09/30 09:17:57;;;;;;;14.27;2.85;;;;;;;17.24;91.41;102102.63;4801883;29;20188;-40
2023/09/30 09:20:28;;;;;;;12.60;3.30;;;;;;;17.09;91.79;102108.75;4801170;29;20184;-41
2023/09/30 09:22:55;;;;;;;14.82;3.10;;;;;;;16.69;91.77;102107.78;4802293;29;20210;-41
2023/09/30 09:25:22;;;;;;;14.10;3.17;;;;;;;16.75;91.88;102110.25;4801854;29;20592;-42
2023/09/30 09:27:49;;;;;;;13.25;2.90;;;;;;;17.16;91.95;102115.66;4801237;29;20238;-41
2023/09/30 09:30:26;;;;;;;12.18;2.80;;;;;;;17.16;91.64;102099.41;4800972;29;20196;-41
2023/09/30 09:32:53;;;;;;;14.63;3.30;;;;;;;17.40;91.70;102099.22;4801727;29;20239;-41
2023/09/30 09:35:20;;;;;;;11.48;2.30;;;;;;;17.09;91.70;102104.22;4801724;29;20559;-41
2023/09/30 09:37:57;;;;;;;12.32;2.55;;;;;;;16.96;92.21;102110.25;4801868;29;20195;-41
2023/09/30 09:40:27;;;;;;;11.88;2.60;;;;;;;16.69;92.72;102107.78;4790738;29;20195;-41
2023/09/30 09:42:55;;;;;;;15.18;2.70;;;;;;;16.44;93.51;102105.25;4830071;29;20221;-39
2023/09/30 09:45:26;;;;;;;11.95;2.78;;;;;;;16.45;94.41;102124.13;4836536;29;20201;-41
2023/09/30 09:47:53;;;;;;;18.25;3.20;;;;;;;16.23;95.57;102120.56;4837298;29;20202;-41
2023/09/30 09:50:20;;;;;;;10.70;2.70;;;;;;;16.45;96.38;102116.00;4864926;29;20189;-42
2023/09/30 09:52:50;;;;;;;14.52;3.28;;;;;;;16.65;96.19;102123.28;4837609;29;20206;-42
2023/09/30 09:55:18;;;;;;;10.38;2.65;;;;;;;16.71;96.58;102127.56;4836196;29;20195;-41
2023/09/30 09:57:44;;;;;;;11.57;3.28;;;;;;;16.65;96.89;102125.97;4836030;29;20526;-41
2023/09/30 10:00:18;;;;;;;10.80;2.83;;;;;;;17.19;96.72;102128.19;4838238;29;20182;-42
2023/09/30 10:02:45;;;;;;;13.20;3.30;;;;;;;17.58;95.55;102122.78;4840676;29;20300;-40
2023/09/30 10:05:12;;;;;;;13.68;2.47;;;;;;;17.65;93.79;102120.66;4841575;29;20214;-42
2023/09/30 10:07:44;;;;;;;12.50;2.55;;;;;;;17.70;92.29;102124.88;4842154;29;20186;-40
2023/09/30 10:10:15;;;;;;;14.38;2.88;;;;;;;18.00;91.72;102109.97;4840432;29;20210;-41
2023/09/30 10:12:40;;;;;;;12.18;2.55;;;;;;;18.24;90.04;102107.88;4840732;29;20210;-41
2023/09/30 10:15:24;;;;;;;13.68;2.85;;;;;;;18.39;87.99;102098.97;4840699;29;20189;-41
2023/09/30 10:18:00;;;;;;;15.18;2.70;;;;;;;18.20;85.94;102090.00;4841883;29;20187;-41
2023/09/30 10:20:31;;;;;;;18.15;3.05;;;;;;;18.16;83.74;102085.66;4840499;29;20174;-40
2023/09/30 10:23:19;;;;;;;13.73;3.03;;;;;;;17.93;82.72;102093.13;4841683;29;20221;-41
2023/09/30 10:25:49;;;;;;;9.35;2.58;;;;;;;18.06;81.96;102086.13;4841825;29;20547;-42
2023/09/30 10:28:41;;;;;;;12.68;2.55;;;;;;;18.31;80.62;102077.63;4847128;29;20284;-41
2023/09/30 10:31:25;;;;;;;11.48;2.38;;;;;;;18.30;79.23;102069.56;4839230;29;20205;-41
2023/09/30 10:34:00;;;;;;;13.23;2.80;;;;;;;18.26;79.09;102065.28;4841345;29;20243;-40
2023/09/30 10:36:33;;;;;;;9.48;2.70;;;;;;;18.64;78.61;102074.13;4841327;29;20246;-40
2023/09/30 10:39:00;;;;;;;14.40;2.53;;;;;;;18.09;78.25;102083.25;4852798;29;20616;-41
2023/09/30 10:41:48;;;;;;;12.57;2.70;;;;;;;17.92;76.61;102080.50;4893373;29;20179;-43
2023/09/30 10:44:25;;;;;;;9.63;2.65;;;;;;;17.26;76.16;102084.50;4894850;29;20276;-45
2023/09/30 10:46:51;;;;;;;9.43;2.42;;;;;;;17.00;76.38;102082.97;4894687;29;20200;-43
2023/09/30 10:49:38;;;;;;;9.70;2.40;;;;;;;17.48;76.14;102089.78;4890369;29;20224;-44
2023/09/30 10:52:04;;;;;;;10.02;2.17;;;;;;;17.38;75.71;102084.88;4893027;29;20719;-44
2023/09/30 10:54:31;;;;;;;12.20;2.72;;;;;;;17.46;75.95;102086.25;4895472;29;20204;-45
2023/09/30 10:56:59;;;;;;;11.77;2.28;;;;;;;17.73;75.56;102099.44;4892436;29;20332;-46
2023/09/30 10:59:27;;;;;;;10.10;2.90;;;;;;;17.84;73.89;102082.69;4893784;29;20677;-46
2023/09/30 11:01:53;;;;;;;9.15;2.22;;;;;;;18.12;73.09;102072.25;4892757;29;20217;-46
2023/09/30 11:04:19;;;;;;;10.10;2.55;;;;;;;18.04;72.36;102074.47;4877124;29;20232;-48
2023/09/30 11:06:45;;;;;;;10.73;2.35;;;;;;;18.42;71.11;102058.09;4891673;29;20275;-47
2023/09/30 11:09:16;;;;;;;13.80;2.22;;;;;;;18.43;70.13;102045.38;4896133;29;20193;-47
2023/09/30 11:11:48;;;;;;;9.35;2.28;;;;;;;18.21;69.40;102040.19;4887941;29;20181;-47
2023/09/30 11:14:20;;;;;;;6.50;2.13;;;;;;;17.89;68.72;102032.72;4891197;29;20208;-47
2023/09/30 11:16:46;;;;;;;7.20;2.00;;;;;;;17.65;68.89;102045.63;4893259;29;20192;-48